LCPHUWUU

Guest
Details From LCPH - Pafos Intl
To UWUU - Ufa
Flight Number -
Tags Generated
Created
Modified
Stats Distance 1,541 nm / 2,855 km
Max Altitude 0 ft / 0 m
Waypoints 5
Social Downloads 0
Likes 0
Share VATSIM

Download

Looking for another format? Having issues loading an existing format? Contact us
Advertisement - Login to hide

Notes

Generated

Route

LCPH KEMER VIBAD ADLOK UWUU

ID Type Via Altitude Latitude Longitude Leg Dist Tot Dist Heading (true) Name
O LCPH APT - 0 ft / 0 m 34.72226˚ 32.47189˚ - 0 nm - -
KEMER FIX - 0 ft / 0 m 37.60050˚ 34.72217˚ 204 nm 204 nm 32° / 33° -
VIBAD FIX - 0 ft / 0 m 46.88333˚ 43.90000˚ 689 nm 894 nm 33° / 39° -
ADLOK FIX - 0 ft / 0 m 54.31667˚ 55.40000˚ 624 nm 1518 nm 40° / 49° -
O UWUU APT - 0 ft / 0 m 54.56239˚ 55.90191˚ 22 nm 1541 nm 50° / 50° -

Altitude Profile

Advertisement - Login to hide

Weather


0- 5 10 15 20 25 30 35+ Temperature / ° C

Clouds and Precipitation
Forecast for 2018-05-27 00:00 UTC. Updated 24 minutes ago

Ground ~20,000 ft ~40,000 ft Winds

LCPH

Details ICAO LCPH (PFO)
Name PAFOS INTL
Region Cyprus
Timezone Asia/Nicosia (UTC+3.0)
Stats Elevation 41 ft / 12 m (AMSL)
Location 34.718038° 32.485731°
Runways 1
Magnetic Variation 4.957° E

METAR

LCPH 262330Z 01006KT CAVOK 19/17 Q1009

Decode

TAF

TAF LCPH 261730Z 2618/2718 29010KT 9999 FEW025 BECMG 2618/2620 01006KT BECMG 2708/2712 26010KT

Decode

Departure Runways

ID Width Length Bearing (true) Bearing (mag) Surface Threshold Offset Overrun Length
11 148 ft / 45 m 8,854 ft / 2,699 m 110.34° 105.38° Asphalt 0 ft / 0 m 0 ft / 0 m
29 148 ft / 45 m 8,854 ft / 2,699 m 290.36° 285.40° Asphalt 0 ft / 0 m 150 ft / 46 m

UWUU

Details ICAO UWUU (UFA)
Name UFA
Region Russia
Timezone Asia/Yekaterinburg (UTC+5.0)
Stats Elevation 449 ft / 137 m (AMSL)
Location 54.559596° 55.890497°
Runways 5
Magnetic Variation 13.267° E

METAR

UWUU 262330Z 26004MPS CAVOK 02/M03 Q1025 R32L/0///60 NOSIG RMK QFE756/1008

Decode

TAF

TAF UWUU 261955Z 2621/2721 30005MPS 9999 BKN030 TEMPO 2621/2704 28003G08MPS BECMG 2704/2706 26008G13MPS

Decode

Destination Runways

ID Width Length Bearing (true) Bearing (mag) Surface Threshold Offset Overrun Length
01 345 ft / 105 m 2,210 ft / 674 m 28.65° 15.38° Dirt 0 ft / 0 m 0 ft / 0 m
05 300 ft / 91 m 2,377 ft / 725 m 59.99° 46.72° Dirt 0 ft / 0 m 0 ft / 0 m
14 315 ft / 96 m 2,111 ft / 644 m 151.59° 138.32° Dirt 0 ft / 0 m 0 ft / 0 m
14L 164 ft / 50 m 8,236 ft / 2,511 m 150.92° 137.65° Concrete 0 ft / 0 m 165 ft / 50 m
14R 197 ft / 60 m 12,294 ft / 3,747 m 151.30° 138.03° Concrete 0 ft / 0 m 240 ft / 73 m
19 345 ft / 105 m 2,210 ft / 674 m 208.66° 195.39° Dirt 0 ft / 0 m 0 ft / 0 m
23 300 ft / 91 m 2,377 ft / 725 m 239.99° 226.72° Dirt 0 ft / 0 m 0 ft / 0 m
32 315 ft / 96 m 2,111 ft / 644 m 331.59° 318.32° Dirt 0 ft / 0 m 0 ft / 0 m
32L 197 ft / 60 m 12,294 ft / 3,747 m 331.33° 318.06° Concrete 0 ft / 0 m 240 ft / 73 m
32R 164 ft / 50 m 8,236 ft / 2,511 m 330.94° 317.67° Concrete 0 ft / 0 m 165 ft / 50 m